Main page
METAR-TAF:

METAR-TAF

Airports :

Bordj Mokhtar Airport

Bordj Badji Mokhtar, Algeria

latitude: 21-22-30N, longitude: 000-55-26E, elevation: 396 m

Current weather observation

The report was made 1 hour and 7 minutes ago, at 06:00 UTC
Wind 5 kt from the East/Northeast
Temperature 24°C
Pressure 1015 hPa
Visibility 10 km or more
no clouds below 1500 m and no cumulonimbus

METAR: DATM 260600Z 07005KT CAVOK 24/// Q1015

Time: 08:07 (07:07 UTC)

Forecast

The report was made 58 minutes ago, at 06:09 UTC
Forecast valid from 26 at 06 UTC to 26 at 15 UTC
Wind 14 kt from the East
Visibility: 8000 m
Probability 40%
from 26 at 10 UTC to 26 at 14 UTC
Wind 22 kt from the East
Visibility: 3000 m
Low drifting sand

TAF: DATM 260609Z 2606/2615 08014KT 8000 NSC PROB40 2610/2614 10022KT 3000 DRSA

Weather observations and forecasts of more than 4000 airports (METAR and TAF reports).

The available stations are represented by yellow and red dots on the map.

Hover mouse over dot to see the name of the station.

Then click to see weather observations and forecasts.

To change the map : click on the green buttons with a black cross to zoom in, on the green button with a dash to zoom out, or on the green arrows for adjacent maps.


METAR-TAF: